Aviation Digital Data Service (ADDS)

Output produced by METARs form (1254 UTC 30 May 2017)
found at http://aviationweather.gov/adds/metars/
 
KILG 301127Z 3012/3112 10007KT P6SM OVC009 
     TEMPO 3012/3014 OVC012 
     FM301400 12008KT P6SM VCSH OVC006 
     FM310000 14008KT 5SM BR OVC005 
     PROB30 3101/3105 2SM -SHRA 
     FM310500 15006KT 1SM -DZ OVC003